Time;durP1;ratioP1;P1;durP2;ratioP2;P2;SDS_P1;SDS_P2;PMS_P1;PMS_P2;Temp;Humidity;BMP_temperature;BMP_pressure;BME280_temperature;BME280_humidity;BME280_pressure;Samples;Min_cycle;Max_cycle;Signal;HPM_P1;HPM_P2
2021/12/20 00:00:48;;;;;;;14.40;11.52;;;;;;;5.93;83.81;101030.47;5056156;28;20033;-55
2021/12/20 00:03:16;;;;;;;16.20;13.35;;;;;;;5.93;84.16;101035.63;5054770;28;20048;-55
2021/12/20 00:05:42;;;;;;;17.80;13.07;;;;;;;5.94;84.11;101037.38;5038564;28;20404;-55
2021/12/20 00:08:07;;;;;;;14.50;11.95;;;;;;;5.94;84.24;101016.81;5056108;28;20043;-54
2021/12/20 00:10:37;;;;;;;23.73;13.75;;;;;;;5.93;84.27;101012.47;5071416;28;20570;-55
2021/12/20 00:13:02;;;;;;;17.13;13.43;;;;;;;5.93;84.09;101021.03;5038036;28;20102;-55
2021/12/20 00:15:28;;;;;;;18.23;13.52;;;;;;;5.95;84.32;101016.00;5056116;28;20439;-55
2021/12/20 00:17:53;;;;;;;18.15;13.25;;;;;;;5.93;84.26;101000.47;5055892;28;20040;-55
2021/12/20 00:20:20;;;;;;;19.13;12.60;;;;;;;5.93;84.09;101010.75;5056120;28;20040;-55
2021/12/20 00:22:46;;;;;;;21.75;13.35;;;;;;;5.95;84.30;101013.41;5038201;28;20045;-55
2021/12/20 00:25:12;;;;;;;17.70;14.52;;;;;;;5.93;84.08;101010.75;5056013;28;20029;-56
2021/12/20 00:27:37;;;;;;;20.63;13.77;;;;;;;5.93;84.07;101003.03;5055656;28;20048;-55
2021/12/20 00:30:05;;;;;;;20.02;15.23;;;;;;;5.95;84.26;101005.69;5055623;28;20064;-55
2021/12/20 00:32:31;;;;;;;22.40;15.05;;;;;;;5.94;83.86;100993.63;5055633;28;20037;-55
2021/12/20 00:34:59;;;;;;;19.58;14.35;;;;;;;5.93;84.27;101002.16;5054193;28;20059;-54
2021/12/20 00:40:21;;;;;;;29.98;19.70;;;;;;;5.93;84.38;100992.75;5054392;28;20082;-55
2021/12/20 00:42:54;;;;;;;25.33;16.00;;;;;;;5.95;83.93;101005.69;5037316;28;20499;-55
2021/12/20 00:45:22;;;;;;;25.08;15.35;;;;;;;5.94;83.88;101003.94;5037449;28;20029;-55
2021/12/20 00:47:48;;;;;;;22.23;15.77;;;;;;;5.93;84.12;101002.16;5037499;28;20029;-54
2021/12/20 00:50:16;;;;;;;20.63;15.73;;;;;;;5.94;83.90;100998.78;5055659;28;20174;-55
2021/12/20 00:52:43;;;;;;;22.77;15.85;;;;;;;5.95;83.99;101000.56;5037372;28;20037;-55
2021/12/20 00:55:10;;;;;;;22.27;15.35;;;;;;;5.94;84.46;100991.94;5037306;28;20064;-54
2021/12/20 00:57:35;;;;;;;21.10;14.98;;;;;;;5.93;83.65;100982.44;5055643;28;20037;-55
2021/12/20 01:00:01;;;;;;;22.50;16.00;;;;;;;5.93;83.95;100990.16;5055300;28;20033;-55
2021/12/20 01:02:30;;;;;;;22.90;15.82;;;;;;;5.94;83.83;100985.91;5053346;28;20503;-55
2021/12/20 01:04:56;;;;;;;21.77;15.50;;;;;;;5.93;83.88;100984.16;5037326;28;20041;-55
2021/12/20 01:07:21;;;;;;;22.00;15.32;;;;;;;5.93;84.22;100977.31;5055012;28;20037;-55
2021/12/20 01:09:47;;;;;;;22.20;15.18;;;;;;;5.93;84.34;100982.44;5053630;28;20128;-55
2021/12/20 01:12:19;;;;;;;21.35;15.20;;;;;;;5.95;84.00;100982.53;5054893;28;20361;-55
2021/12/20 01:14:45;;;;;;;20.67;14.27;;;;;;;5.93;84.33;100979.88;5054877;28;20037;-55
2021/12/20 01:17:10;;;;;;;22.05;16.05;;;;;;;5.95;84.37;100985.13;5053483;28;20570;-55
2021/12/20 01:19:38;;;;;;;22.45;15.75;;;;;;;5.93;83.99;100979.00;5053578;28;20033;-55
2021/12/20 01:22:05;;;;;;;18.83;14.93;;;;;;;5.95;83.89;100979.97;5036641;28;20080;-55
2021/12/20 01:24:33;;;;;;;22.50;16.98;;;;;;;5.93;83.90;100979.00;5053453;28;20029;-55
2021/12/20 01:26:59;;;;;;;21.10;16.05;;;;;;;5.93;83.75;100973.88;5054534;28;20037;-55
2021/12/20 01:29:24;;;;;;;19.33;15.05;;;;;;;5.94;83.72;100973.06;5054547;28;20039;-55
2021/12/20 01:31:50;;;;;;;23.48;16.45;;;;;;;5.93;84.09;100968.72;5054527;28;20051;-55
2021/12/20 01:34:19;;;;;;;19.92;14.80;;;;;;;5.93;84.40;100976.44;5054412;28;20504;-55
2021/12/20 01:36:44;;;;;;;24.48;16.35;;;;;;;5.93;84.18;100984.16;5054298;28;20037;-55
2021/12/20 01:39:10;;;;;;;20.70;16.13;;;;;;;5.93;83.66;100976.44;5053099;28;20033;-55
2021/12/20 01:41:41;;;;;;;20.95;14.10;;;;;;;5.94;83.88;100985.91;5053333;28;20106;-55
2021/12/20 01:44:08;;;;;;;21.15;15.40;;;;;;;5.93;84.06;100981.59;5036348;28;20526;-55
2021/12/20 01:46:34;;;;;;;20.95;15.70;;;;;;;5.92;84.57;100988.41;5036355;28;20041;-55
2021/12/20 01:49:01;;;;;;;23.73;16.65;;;;;;;5.93;84.28;100989.28;5054184;28;20037;-55
2021/12/20 01:54:04;;;;;;;21.75;15.80;;;;;;;5.92;84.46;100988.41;5053303;28;20099;-55
2021/12/20 01:56:32;;;;;;;22.38;16.02;;;;;;;5.92;84.11;100982.38;5054034;28;20037;-55
2021/12/20 01:59:03;;;;;;;22.98;15.32;;;;;;;5.92;83.60;100990.97;5053064;28;20107;-55
2021/12/20 02:01:31;;;;;;;23.17;15.75;;;;;;;5.92;84.09;100995.25;5035727;28;20052;-55
2021/12/20 02:04:06;;;;;;;24.08;16.27;;;;;;;5.92;83.77;100988.41;5069341;28;20034;-55
2021/12/20 02:06:36;;;;;;;23.90;15.32;;;;;;;5.92;84.41;100992.69;5036265;28;20032;-55
2021/12/20 02:09:17;;;;;;;23.85;15.90;;;;;;;5.92;83.79;100984.97;5054084;28;20120;-55
2021/12/20 02:11:45;;;;;;;21.13;15.50;;;;;;;5.92;83.57;100990.09;5053849;28;20045;-55
2021/12/20 02:14:13;;;;;;;22.80;16.08;;;;;;;5.90;84.48;100992.63;5035930;28;20037;-55
2021/12/20 02:16:40;;;;;;;25.27;16.45;;;;;;;5.92;84.17;100995.25;5035567;28;20033;-55
2021/12/20 02:19:14;;;;;;;23.00;16.30;;;;;;;5.92;83.73;100995.25;5036701;28;20063;-55
2021/12/20 02:21:41;;;;;;;22.77;16.20;;;;;;;5.92;83.88;100990.09;5053842;28;20133;-55
2021/12/20 02:24:08;;;;;;;23.77;15.48;;;;;;;5.91;84.25;100986.66;5035769;28;20069;-55
2021/12/20 02:26:35;;;;;;;25.83;17.20;;;;;;;5.92;84.30;100983.25;5035741;28;20029;-55
2021/12/20 02:29:05;;;;;;;23.33;17.92;;;;;;;5.92;83.78;100984.97;5069057;28;20086;-55
2021/12/20 02:40:05;;;;;;;22.83;16.45;;;;;;;5.92;84.42;100970.38;4992101;28;20035;-55
2021/12/20 02:42:40;;;;;;;20.30;15.32;;;;;;;5.92;83.55;100967.81;4991920;28;20516;-55
2021/12/20 02:45:12;;;;;;;22.92;15.90;;;;;;;5.91;84.08;100963.50;4998399;28;20060;-56
2021/12/20 02:47:40;;;;;;;23.75;14.80;;;;;;;5.93;84.42;100966.13;5053441;28;20162;-55
2021/12/20 02:50:06;;;;;;;19.92;15.27;;;;;;;5.92;83.76;100964.38;5052048;28;20477;-55
2021/12/20 02:52:31;;;;;;;20.20;14.13;;;;;;;5.92;83.77;100962.66;5053035;28;20033;-55
2021/12/20 02:54:57;;;;;;;20.60;14.25;;;;;;;5.93;84.06;100963.56;5053055;28;20044;-55
2021/12/20 02:57:22;;;;;;;19.45;14.25;;;;;;;5.93;83.99;100966.13;5053149;28;20373;-55
2021/12/20 02:59:48;;;;;;;19.13;15.10;;;;;;;5.93;84.18;100968.72;5052318;28;20512;-55
2021/12/20 03:02:13;;;;;;;18.42;13.43;;;;;;;5.95;84.38;100969.69;5051796;28;20123;-55
2021/12/20 03:04:39;;;;;;;18.40;14.52;;;;;;;5.93;83.75;100968.72;5052898;28;20029;-55
2021/12/20 03:07:09;;;;;;;21.85;14.27;;;;;;;5.95;84.06;100967.97;5051800;28;20080;-55
2021/12/20 03:09:39;;;;;;;20.27;14.27;;;;;;;5.93;84.16;100961.88;5052202;28;20033;-55
2021/12/20 03:12:07;;;;;;;17.45;13.90;;;;;;;5.92;84.09;100959.22;5035253;28;20098;-55
2021/12/20 03:14:38;;;;;;;19.98;14.00;;;;;;;5.93;84.19;100971.28;5035552;28;20071;-55
2021/12/20 03:17:05;;;;;;;19.98;13.75;;;;;;;5.93;84.35;100963.56;5053059;28;20043;-55
2021/12/20 03:19:34;;;;;;;18.52;13.55;;;;;;;5.92;83.78;100961.81;5051844;28;20059;-54
2021/12/20 03:22:03;;;;;;;16.05;11.98;;;;;;;5.94;84.14;100961.06;5051877;28;20098;-55
2021/12/20 03:24:29;;;;;;;18.15;14.00;;;;;;;5.93;83.81;100958.41;5053429;28;20048;-55
2021/12/20 03:26:55;;;;;;;18.20;12.98;;;;;;;5.92;84.07;100956.66;5057019;28;20029;-55
2021/12/20 03:29:21;;;;;;;15.63;12.65;;;;;;;5.94;84.18;100952.47;5056865;28;20052;-55
2021/12/20 03:31:46;;;;;;;15.38;12.13;;;;;;;5.95;84.10;100941.38;5055410;28;20037;-55
2021/12/20 03:34:12;;;;;;;15.10;11.88;;;;;;;5.93;83.62;100945.56;5056705;28;20045;-55
2021/12/20 03:36:38;;;;;;;16.58;13.10;;;;;;;5.93;83.51;100941.28;5038779;28;20075;-55
2021/12/20 03:39:06;;;;;;;17.90;13.10;;;;;;;5.94;83.95;100942.19;5038970;28;20037;-54
2021/12/20 03:41:32;;;;;;;18.98;11.75;;;;;;;5.94;83.96;100944.75;5056535;28;20069;-55
2021/12/20 03:44:00;;;;;;;17.70;12.18;;;;;;;5.94;83.64;100944.75;5056504;28;20056;-55
2021/12/20 03:46:25;;;;;;;14.73;10.00;;;;;;;5.95;83.84;100943.94;5056452;28;20158;-55
2021/12/20 03:48:51;;;;;;;19.05;12.98;;;;;;;5.94;84.11;100947.31;5055164;28;20088;-55
2021/12/20 03:51:17;;;;;;;15.48;11.75;;;;;;;5.93;83.77;100946.41;5056660;28;20040;-56
2021/12/20 03:53:43;;;;;;;17.15;12.63;;;;;;;5.94;83.98;100947.31;5055109;28;20036;-55
2021/12/20 03:56:08;;;;;;;15.05;11.32;;;;;;;5.94;83.62;100947.31;5038495;28;20120;-55
2021/12/20 03:58:35;;;;;;;14.70;10.52;;;;;;;5.94;83.59;100957.63;5054940;28;20124;-55
2021/12/20 04:01:05;;;;;;;16.30;11.07;;;;;;;5.93;83.69;100951.56;5054872;28;20047;-55
2021/12/20 04:03:34;;;;;;;14.93;10.85;;;;;;;5.93;84.27;100963.56;5038286;28;20457;-55
2021/12/20 04:06:00;;;;;;;14.35;11.13;;;;;;;5.93;84.09;100963.56;5038491;28;20133;-55
2021/12/20 04:08:25;;;;;;;14.40;10.98;;;;;;;5.93;84.39;100966.13;5038261;28;20469;-55
2021/12/20 04:10:51;;;;;;;18.45;12.25;;;;;;;5.93;83.65;100964.44;5056251;28;20044;-55
2021/12/20 04:13:17;;;;;;;17.20;11.45;;;;;;;5.93;83.88;100969.59;5056022;28;20079;-54
2021/12/20 04:15:45;;;;;;;15.63;10.50;;;;;;;5.95;83.92;100967.09;5056219;28;20508;-55
2021/12/20 04:18:10;;;;;;;13.98;10.85;;;;;;;5.93;83.80;100967.00;5055678;28;20068;-55
2021/12/20 04:20:36;;;;;;;16.02;9.55;;;;;;;5.93;84.06;100961.00;5054608;28;20033;-55
2021/12/20 04:23:01;;;;;;;16.58;10.25;;;;;;;5.92;83.70;100954.94;5055799;28;20040;-54
2021/12/20 04:27:43;;;;;;;13.52;10.45;;;;;;;5.92;84.02;100959.22;5111552;27;20246;-55
2021/12/20 04:30:09;;;;;;;13.60;9.95;;;;;;;5.91;84.04;100952.31;5111734;28;20066;-55
2021/12/20 04:32:37;;;;;;;14.45;11.07;;;;;;;5.90;84.06;100953.13;5110386;28;20112;-55
2021/12/20 04:35:03;;;;;;;18.05;10.98;;;;;;;5.91;83.91;100953.22;5110277;28;20031;-55
2021/12/20 04:37:28;;;;;;;14.68;10.13;;;;;;;5.90;84.04;100954.03;5111544;28;20081;-56
2021/12/20 04:39:56;;;;;;;15.48;10.63;;;;;;;5.91;84.18;100954.88;5110173;28;20043;-56
2021/12/20 04:42:22;;;;;;;15.48;10.00;;;;;;;5.92;83.48;100951.50;5109856;28;20036;-55
2021/12/20 04:44:47;;;;;;;13.02;10.07;;;;;;;5.91;83.90;100952.31;5111095;28;20043;-55
2021/12/20 04:47:13;;;;;;;15.60;9.80;;;;;;;5.92;83.90;100956.66;5110927;28;20085;-55
2021/12/20 04:49:38;;;;;;;16.65;10.50;;;;;;;5.91;83.86;100957.47;5109805;28;20031;-55
2021/12/20 04:52:04;;;;;;;16.90;9.93;;;;;;;5.89;84.32;100944.53;5109987;28;20040;-55
2021/12/20 04:54:29;;;;;;;17.73;10.20;;;;;;;5.92;84.09;100956.66;5110899;28;20493;-56
2021/12/20 04:56:55;;;;;;;16.35;10.45;;;;;;;5.91;84.27;100945.50;5109553;28;20596;-55
2021/12/20 04:59:20;;;;;;;16.25;9.85;;;;;;;5.91;84.11;100942.03;5110771;28;20032;-56
2021/12/20 05:01:46;;;;;;;11.93;8.45;;;;;;;5.91;84.15;100948.06;5110656;28;20043;-54
2021/12/20 05:04:11;;;;;;;15.65;9.73;;;;;;;5.92;84.24;100946.38;5109571;28;20123;-53
2021/12/20 05:06:37;;;;;;;14.65;9.57;;;;;;;5.91;83.86;100947.16;5110602;28;20043;-56
2021/12/20 05:09:04;;;;;;;12.75;8.38;;;;;;;5.91;83.67;100955.78;5109471;28;20085;-53
2021/12/20 05:11:31;;;;;;;12.82;8.32;;;;;;;5.90;83.87;100958.25;5110676;28;20028;-54
2021/12/20 05:13:59;;;;;;;13.40;8.48;;;;;;;5.90;84.11;100951.44;5110556;28;20091;-53
2021/12/20 05:16:24;;;;;;;13.90;8.63;;;;;;;5.89;84.11;100952.25;5126369;27;20090;-54
2021/12/20 05:18:53;;;;;;;12.52;8.60;;;;;;;5.90;84.07;100956.59;5109138;28;20040;-55
2021/12/20 05:21:21;;;;;;;10.75;7.78;;;;;;;5.89;83.88;100952.25;5092182;28;20539;-55
2021/12/20 05:23:46;;;;;;;21.55;9.98;;;;;;;5.89;84.19;100949.69;5109132;28;20150;-56
2021/12/20 05:26:12;;;;;;;12.45;8.90;;;;;;;5.89;83.69;100953.91;5109995;28;20134;-56
2021/12/20 05:28:37;;;;;;;15.05;8.65;;;;;;;5.88;83.90;100955.63;5109035;28;20032;-55
2021/12/20 05:31:03;;;;;;;10.18;7.93;;;;;;;5.89;83.87;100956.50;5110132;28;20039;-55
2021/12/20 05:33:34;;;;;;;19.15;8.50;;;;;;;5.89;84.06;100964.22;5110412;28;20039;-56
2021/12/20 05:35:59;;;;;;;14.98;8.90;;;;;;;5.90;83.52;100960.84;5110199;28;20043;-55
2021/12/20 05:38:27;;;;;;;14.80;8.80;;;;;;;5.89;84.38;100966.78;5100347;28;20036;-55
2021/12/20 05:40:55;;;;;;;12.65;8.10;;;;;;;5.89;83.60;100965.13;5078561;28;20043;-55
2021/12/20 05:43:21;;;;;;;11.27;7.45;;;;;;;5.90;84.12;100963.41;5095566;28;20077;-55
2021/12/20 05:45:47;;;;;;;10.25;7.07;;;;;;;5.89;83.93;100965.13;5096191;28;20123;-55
2021/12/20 05:48:12;;;;;;;17.95;8.18;;;;;;;5.91;83.88;100972.91;5094984;28;20170;-55
2021/12/20 05:50:38;;;;;;;12.25;7.60;;;;;;;5.90;83.82;100965.97;5096074;28;20028;-55
2021/12/20 05:53:03;;;;;;;12.95;7.85;;;;;;;5.90;84.24;100968.56;5096215;28;20024;-55
2021/12/20 05:55:29;;;;;;;9.70;7.22;;;;;;;5.90;83.67;100966.88;5096134;28;20136;-55
2021/12/20 05:57:54;;;;;;;12.65;7.30;;;;;;;5.91;84.16;100972.91;5096035;28;20043;-55
2021/12/20 06:00:21;;;;;;;13.57;7.60;;;;;;;5.90;83.95;100966.88;5094737;28;20128;-55
2021/12/20 06:02:49;;;;;;;11.48;7.28;;;;;;;5.89;83.98;100967.69;5095048;28;20036;-55
2021/12/20 06:05:15;;;;;;;13.18;6.70;;;;;;;5.88;84.05;100965.91;5111692;28;20255;-55
2021/12/20 06:07:42;;;;;;;10.50;6.82;;;;;;;5.89;84.14;100964.22;5094697;28;20032;-55
2021/12/20 06:10:13;;;;;;;10.70;7.68;;;;;;;5.88;83.96;100971.06;5095883;28;20036;-55
2021/12/20 06:12:40;;;;;;;15.45;8.25;;;;;;;5.88;84.15;100960.78;5094901;28;20436;-55
2021/12/20 06:15:07;;;;;;;11.48;6.60;;;;;;;5.88;83.52;100963.34;5077962;28;20067;-56
2021/12/20 06:17:34;;;;;;;10.05;7.20;;;;;;;5.88;83.96;100968.50;5078247;28;20040;-55
2021/12/20 06:20:00;;;;;;;8.95;6.07;;;;;;;5.88;84.17;100963.34;5095684;28;20043;-55
2021/12/20 06:22:26;;;;;;;12.40;6.60;;;;;;;5.87;83.71;100965.81;5094396;28;20093;-55
2021/12/20 06:24:51;;;;;;;14.73;7.10;;;;;;;5.88;83.55;100967.59;5096024;28;20037;-55
2021/12/20 06:27:20;;;;;;;14.85;7.13;;;;;;;5.87;83.98;100964.16;5096057;28;20050;-55
2021/12/20 06:29:48;;;;;;;14.45;6.35;;;;;;;5.89;83.86;100966.78;5095545;28;20032;-56
2021/12/20 06:32:13;;;;;;;11.93;6.63;;;;;;;5.88;84.14;100968.50;5094083;28;20083;-55
2021/12/20 06:34:39;;;;;;;12.63;6.97;;;;;;;5.88;83.79;100972.75;5094002;28;20048;-55
2021/12/20 06:37:05;;;;;;;11.18;6.82;;;;;;;5.89;83.70;100984.81;5094058;28;20081;-55
2021/12/20 06:39:31;;;;;;;9.40;5.63;;;;;;;5.89;83.56;100974.50;5094178;28;20040;-55
2021/12/20 06:41:57;;;;;;;9.80;6.18;;;;;;;5.88;84.06;100970.16;5095284;28;20483;-55
2021/12/20 06:44:22;;;;;;;8.35;6.03;;;;;;;5.88;83.87;100971.06;5094063;28;20036;-55
2021/12/20 06:46:49;;;;;;;11.30;6.57;;;;;;;5.88;83.59;100976.22;5095153;28;20433;-55
2021/12/20 06:49:14;;;;;;;12.95;6.50;;;;;;;5.88;84.04;100972.75;5109974;28;20090;-55
2021/12/20 06:51:43;;;;;;;12.93;6.07;;;;;;;5.90;83.69;100981.41;5093849;28;20032;-55
2021/12/20 06:54:10;;;;;;;13.27;5.97;;;;;;;5.90;83.72;100984.00;5076915;28;20042;-55
2021/12/20 06:56:36;;;;;;;8.77;5.38;;;;;;;5.90;84.22;100981.41;5077014;28;20044;-55
2021/12/20 06:59:02;;;;;;;9.73;5.60;;;;;;;5.89;83.62;100980.56;5094903;28;20127;-55
2021/12/20 07:01:28;;;;;;;8.40;5.25;;;;;;;5.90;84.02;100987.47;5076771;28;20036;-55
2021/12/20 07:03:56;;;;;;;8.88;5.60;;;;;;;5.90;84.31;100984.00;5093820;28;20040;-55
2021/12/20 07:06:22;;;;;;;12.45;5.95;;;;;;;5.90;84.27;100979.75;5093715;28;20039;-55
2021/12/20 07:08:48;;;;;;;13.75;6.72;;;;;;;5.89;83.62;100980.56;5110715;28;20036;-55
2021/12/20 07:11:14;;;;;;;13.20;5.85;;;;;;;5.88;84.05;100988.16;5094643;28;20046;-54
2021/12/20 07:13:40;;;;;;;10.25;6.15;;;;;;;5.90;83.41;100981.41;5094375;28;20158;-55
2021/12/20 07:16:07;;;;;;;12.70;6.15;;;;;;;5.89;84.27;100987.38;5094633;28;20475;-55
2021/12/20 07:18:38;;;;;;;19.02;6.10;;;;;;;5.88;83.87;100983.03;5076428;28;20032;-55
2021/12/20 07:21:04;;;;;;;12.82;5.57;;;;;;;5.90;83.53;100989.13;5110650;28;20059;-55
2021/12/20 07:23:34;;;;;;;12.60;6.97;;;;;;;5.90;83.94;100994.28;5076286;28;20068;-54
2021/12/20 07:25:59;;;;;;;11.65;6.00;;;;;;;5.89;83.79;100995.09;5092782;28;20052;-55
2021/12/20 07:28:25;;;;;;;11.15;5.57;;;;;;;5.88;83.75;100990.75;5095038;28;20043;-55
2021/12/20 07:30:50;;;;;;;11.75;5.55;;;;;;;5.89;83.72;100992.50;5094718;28;20033;-55
2021/12/20 07:33:16;;;;;;;12.00;5.78;;;;;;;5.87;83.90;100995.03;5094341;28;20028;-55
2021/12/20 07:35:43;;;;;;;13.00;6.00;;;;;;;5.89;83.76;101001.13;5092997;28;20032;-55
2021/12/20 07:38:13;;;;;;;11.05;4.78;;;;;;;5.88;83.76;101001.94;5092996;28;20036;-55
2021/12/20 07:40:47;;;;;;;8.38;4.68;;;;;;;5.90;83.56;101007.16;5093155;28;20388;-55
2021/12/20 07:43:16;;;;;;;9.95;5.25;;;;;;;5.89;83.85;101003.72;5075965;28;20510;-55
2021/12/20 07:45:42;;;;;;;7.43;4.68;;;;;;;5.90;83.79;101002.00;5076569;28;20526;-55
2021/12/20 07:48:08;;;;;;;12.40;5.25;;;;;;;5.89;84.02;101008.84;5094060;28;20039;-55
2021/12/20 07:50:34;;;;;;;8.98;5.18;;;;;;;5.89;83.58;101011.44;5094095;28;20032;-55
2021/12/20 07:53:02;;;;;;;6.97;4.57;;;;;;;5.89;83.45;101006.28;5075895;28;20063;-56
2021/12/20 07:55:28;;;;;;;8.10;5.15;;;;;;;5.91;83.63;101009.81;5092655;28;20445;-55
2021/12/20 07:57:54;;;;;;;12.45;5.18;;;;;;;5.90;83.57;101017.44;5092654;28;20077;-55
2021/12/20 08:00:19;;;;;;;13.07;5.55;;;;;;;5.89;83.51;101024.28;5093668;28;20036;-55
2021/12/20 08:02:46;;;;;;;8.88;4.50;;;;;;;5.89;83.77;101013.09;5092700;28;20044;-55
2021/12/20 08:05:14;;;;;;;10.85;4.28;;;;;;;5.90;83.70;101009.72;5092742;28;20036;-55
2021/12/20 08:07:41;;;;;;;9.65;5.22;;;;;;;5.89;83.79;101000.22;5092527;28;20111;-55
2021/12/20 08:10:08;;;;;;;9.93;4.50;;;;;;;5.88;83.61;101012.22;5093032;28;20109;-55
2021/12/20 08:12:42;;;;;;;8.05;4.18;;;;;;;5.88;84.24;101013.91;5076010;28;20036;-54
2021/12/20 08:15:11;;;;;;;9.98;5.40;;;;;;;5.88;84.16;101008.75;5092852;28;20055;-55
2021/12/20 08:17:37;;;;;;;10.45;5.32;;;;;;;5.88;83.65;101013.91;5075583;28;20042;-55
2021/12/20 08:20:04;;;;;;;8.20;4.50;;;;;;;5.89;83.91;101015.66;5092467;28;20119;-55
2021/12/20 08:22:30;;;;;;;9.80;4.35;;;;;;;5.89;83.61;101015.66;5075422;28;20036;-55
2021/12/20 08:24:56;;;;;;;10.25;5.05;;;;;;;5.88;83.97;101016.47;5093822;28;20123;-54
2021/12/20 08:27:21;;;;;;;10.70;5.35;;;;;;;5.87;83.73;101022.44;5075349;28;20499;-55
2021/12/20 08:29:47;;;;;;;10.07;4.63;;;;;;;5.88;83.71;101019.06;5093799;28;20046;-55
2021/12/20 08:32:15;;;;;;;7.22;5.25;;;;;;;5.87;83.91;101022.44;5093544;28;20036;-54
2021/12/20 08:34:40;;;;;;;9.73;4.72;;;;;;;5.86;84.11;101019.00;5092372;28;20032;-55
2021/12/20 08:37:06;;;;;;;13.25;5.32;;;;;;;5.86;84.13;101016.41;5092206;28;20034;-55
2021/12/20 08:39:33;;;;;;;16.73;4.75;;;;;;;5.86;83.55;101018.09;5093485;28;20040;-55
2021/12/20 08:41:58;;;;;;;8.80;5.15;;;;;;;5.85;83.94;101027.50;5109741;28;20081;-55
2021/12/20 08:44:31;;;;;;;11.18;4.55;;;;;;;5.85;83.87;101022.38;5075330;28;20036;-55
2021/12/20 08:46:58;;;;;;;12.27;5.53;;;;;;;5.86;83.69;101021.56;5109272;28;20044;-55
2021/12/20 08:49:27;;;;;;;16.98;4.93;;;;;;;5.86;83.90;101021.56;5075621;28;20071;-55
2021/12/20 08:51:54;;;;;;;12.98;5.20;;;;;;;5.86;83.70;101023.22;5109005;28;20510;-55
2021/12/20 08:54:23;;;;;;;9.40;4.13;;;;;;;5.85;83.73;101018.88;5075657;28;20044;-55
2021/12/20 08:56:53;;;;;;;8.90;5.13;;;;;;;5.86;84.20;101020.66;5076133;28;20107;-55
2021/12/20 08:59:22;;;;;;;11.80;5.57;;;;;;;5.85;83.74;101019.78;5109382;28;20047;-55
2021/12/20 09:01:48;;;;;;;10.88;5.18;;;;;;;5.86;83.83;101018.09;5093437;28;20032;-55
2021/12/20 09:04:22;;;;;;;12.90;5.72;;;;;;;5.85;83.88;101018.88;5091953;28;20036;-55
2021/12/20 09:06:49;;;;;;;10.73;5.13;;;;;;;5.85;84.26;101024.03;5093079;28;20032;-55
2021/12/20 09:09:17;;;;;;;12.23;4.65;;;;;;;5.83;84.07;101023.97;5091843;28;20097;-55
2021/12/20 09:11:43;;;;;;;9.35;5.25;;;;;;;5.85;84.26;101026.59;5075106;28;20085;-55
2021/12/20 09:14:09;;;;;;;9.73;4.80;;;;;;;5.85;83.40;101024.94;5112323;28;20036;-55
2021/12/20 09:16:35;;;;;;;12.35;5.28;;;;;;;5.86;83.59;101030.94;5078897;28;20495;-55
2021/12/20 09:19:02;;;;;;;12.18;5.05;;;;;;;5.84;84.26;101024.88;5095519;28;20085;-55
2021/12/20 09:21:28;;;;;;;10.95;5.05;;;;;;;5.86;83.59;101025.81;5095905;28;20036;-55
2021/12/20 09:23:55;;;;;;;9.23;4.60;;;;;;;5.86;84.14;101028.38;5079160;28;20040;-55
2021/12/20 09:26:21;;;;;;;14.00;5.13;;;;;;;5.86;83.85;101023.22;5095243;28;20051;-55
2021/12/20 09:28:46;;;;;;;10.63;5.05;;;;;;;5.87;83.57;101027.56;5096868;28;20032;-55
2021/12/20 09:31:14;;;;;;;9.98;4.65;;;;;;;5.87;83.74;101031.03;5096681;28;20044;-55
2021/12/20 09:33:40;;;;;;;6.93;4.75;;;;;;;5.84;83.93;101028.31;5095269;28;20074;-56
2021/12/20 09:36:06;;;;;;;11.35;4.30;;;;;;;5.85;83.56;101034.31;5096896;28;20067;-55
2021/12/20 09:38:38;;;;;;;8.15;4.47;;;;;;;5.85;83.94;101034.31;5078310;28;20555;-55
2021/12/20 09:43:40;;;;;;;11.90;4.78;;;;;;;5.84;83.57;101042.88;5096648;28;20028;-56
2021/12/20 09:46:09;;;;;;;10.75;5.10;;;;;;;5.83;84.11;101044.56;5078104;28;20036;-55
2021/12/20 09:48:36;;;;;;;15.13;5.78;;;;;;;5.84;83.83;101048.03;5096364;28;20032;-54
2021/12/20 09:51:03;;;;;;;12.85;5.03;;;;;;;5.82;84.06;101049.63;5078718;28;20044;-55
2021/12/20 09:53:29;;;;;;;10.85;4.80;;;;;;;5.81;83.55;101053.88;5078505;28;20094;-55
2021/12/20 09:55:57;;;;;;;11.70;4.47;;;;;;;5.80;84.17;101064.97;5096264;28;20040;-55
2021/12/20 09:58:26;;;;;;;11.30;4.32;;;;;;;5.79;83.85;101056.38;5078289;28;20051;-55
2021/12/20 10:00:55;;;;;;;18.13;5.10;;;;;;;5.82;83.95;101057.34;5094865;28;20089;-55
2021/12/20 10:03:21;;;;;;;11.68;5.25;;;;;;;5.81;83.80;101056.44;5077827;28;20043;-55
2021/12/20 10:05:54;;;;;;;10.18;4.60;;;;;;;5.81;83.57;101059.03;5078114;28;20040;-55
2021/12/20 10:08:31;;;;;;;10.60;5.10;;;;;;;5.84;83.64;101063.47;5096230;28;20038;-55
2021/12/20 10:10:59;;;;;;;13.52;4.32;;;;;;;5.83;84.07;101052.28;5077903;28;20035;-55
2021/12/20 10:13:38;;;;;;;7.40;4.28;;;;;;;5.84;83.49;101059.19;5077507;28;20082;-55
2021/12/20 10:16:19;;;;;;;9.00;4.93;;;;;;;5.85;84.00;101065.19;5094911;28;20044;-55
2021/12/20 10:18:45;;;;;;;18.67;6.03;;;;;;;5.84;83.88;101058.31;5094894;28;20086;-55
2021/12/20 10:21:14;;;;;;;11.40;5.43;;;;;;;5.85;83.34;101060.06;5077751;28;20132;-55
2021/12/20 10:23:49;;;;;;;9.68;4.25;;;;;;;5.84;83.39;101069.47;5077539;28;20486;-55
2021/12/20 10:26:20;;;;;;;10.05;5.22;;;;;;;5.85;83.74;101058.38;5094148;28;20044;-55
2021/12/20 10:28:51;;;;;;;10.98;5.15;;;;;;;5.85;83.94;101057.47;5094275;28;20032;-55
2021/12/20 10:31:25;;;;;;;13.25;5.60;;;;;;;5.86;83.82;101051.53;5077663;28;20040;-55
2021/12/20 10:33:53;;;;;;;7.85;4.65;;;;;;;5.85;83.92;101050.66;5094347;28;20036;-55
2021/12/20 10:36:19;;;;;;;11.50;5.28;;;;;;;5.83;83.77;101051.41;5093967;28;20036;-55
2021/12/20 10:38:56;;;;;;;9.02;4.68;;;;;;;5.83;83.57;101057.41;5095642;28;20093;-54
2021/12/20 10:41:36;;;;;;;9.20;4.68;;;;;;;5.83;83.80;101056.53;5095571;28;20119;-55
2021/12/20 10:44:16;;;;;;;14.60;5.32;;;;;;;5.83;83.34;101057.41;5077287;28;20545;-55
2021/12/20 10:46:51;;;;;;;15.55;6.15;;;;;;;5.85;83.80;101060.06;5095150;28;20031;-55
2021/12/20 10:49:18;;;;;;;20.48;6.38;;;;;;;5.84;83.39;101053.16;5077412;28;20398;-55
2021/12/20 10:51:48;;;;;;;12.63;4.78;;;;;;;5.82;83.70;101050.50;5077057;28;20068;-55
2021/12/20 10:54:20;;;;;;;14.48;5.90;;;;;;;5.81;84.06;101055.59;5077191;28;20032;-55
2021/12/20 10:57:02;;;;;;;16.90;5.78;;;;;;;5.82;83.62;101050.50;5093714;28;20039;-55
2021/12/20 10:59:31;;;;;;;12.10;5.90;;;;;;;5.83;83.36;101048.81;5094360;28;20032;-56
2021/12/20 11:04:37;;;;;;;12.88;4.68;;;;;;;5.81;83.60;101051.31;5094535;28;20110;-55
2021/12/20 11:09:43;;;;;;;12.73;6.20;;;;;;;5.79;83.51;101047.75;5094835;28;20123;-55
2021/12/20 11:12:20;;;;;;;17.35;5.65;;;;;;;5.79;83.77;101047.75;5093858;28;20028;-55
2021/12/20 11:14:50;;;;;;;15.35;6.72;;;;;;;5.82;83.77;101054.78;5076910;28;20044;-55
2021/12/20 11:17:20;;;;;;;18.52;6.47;;;;;;;5.79;83.84;101048.66;5110315;28;20047;-56
2021/12/20 11:19:53;;;;;;;22.30;6.75;;;;;;;5.79;83.63;101040.94;5093501;28;20491;-55
2021/12/20 11:22:24;;;;;;;20.73;6.47;;;;;;;5.78;83.49;101035.69;5094479;28;20493;-55
2021/12/20 11:25:00;;;;;;;25.67;6.88;;;;;;;5.77;84.07;101039.06;5093583;28;20556;-55
2021/12/20 11:27:30;;;;;;;20.98;7.50;;;;;;;5.75;83.61;101033.88;5076144;28;20069;-55
2021/12/20 11:29:57;;;;;;;19.63;6.03;;;;;;;5.74;84.11;101039.81;5076222;28;20173;-55
2021/12/20 11:32:24;;;;;;;23.23;5.93;;;;;;;5.73;83.68;101037.19;5094355;28;20039;-55
2021/12/20 11:34:50;;;;;;;19.33;6.40;;;;;;;5.73;83.27;101032.03;5092935;28;20043;-55
2021/12/20 11:37:19;;;;;;;14.98;6.78;;;;;;;5.72;83.96;101036.28;5093246;28;20036;-55
2021/12/20 11:39:52;;;;;;;23.02;7.07;;;;;;;5.71;83.27;101034.50;5076246;28;20439;-55
2021/12/20 11:42:19;;;;;;;18.58;6.82;;;;;;;5.71;83.58;101031.06;5093228;28;20089;-55
2021/12/20 11:44:49;;;;;;;20.25;6.88;;;;;;;5.69;83.58;101023.25;5109878;28;20032;-55
2021/12/20 11:47:37;;;;;;;26.08;6.43;;;;;;;5.70;83.44;101022.44;5075811;28;20596;-55
2021/12/20 11:50:09;;;;;;;26.50;6.18;;;;;;;5.70;83.26;101013.88;5094347;28;20040;-55